Portada
METAR-TAF:

METAR-TAF

Aeropuertos :

Base aérea

Khamis Mushait, Arabia Saudita

latitud: 18-18N, longitud: 042-48E, altitud: 2066 m

Observación

El informe se hizo hace 57 minutos, a las 23:00 UTC
Viento 4 kt del sur-suroeste
Temperatura 13°C
Humedad 94%
Presión 1024 hPa
Visibilidad: 7000 m

METAR: OEKM 192300Z 21004KT 7000 NSC 13/12 Q1024 NOSIG

Hora: 02:57 (23:57 UTC)

Pronóstico

El informe se hizo hace 57 minutos, a las 23:00 UTC
Pronóstico válido del 20 a las 00 UTC al 21 a las 06 UTC
Viento 3 kt con dirección variable
Visibilidad 10 km o más
Escasas nubes a una altura de 2000 ft
Evolucionando progresivamente
del 20 a las 08 UTC al 20 a las 10 UTC
Viento 14 kt del suroeste

TAF: OEKM 192300Z 2000/2106 VRB03KT 9999 FEW020 BECMG 2008/2010 22014KT

Observaciones y pronósticos meteorológicos de más de 4000 aeropuertos (mensajes METAR y TAF).

Los puntos amarillos y rojos representan las estaciones disponibles.

Ponga el ratón en el punto deseado para ver el nombre de la estación.

Haga clic para ver las observaciones y los pronósticos meteorológicos.

Para cambiar el mapa : haga clic en los botones verdes con una cruz de color negro para hacer un zoom, en el botón verde con un guión para alejar o en las flechas verdes para mapas adyacentes.


METAR-TAF: